• Join FlightAware (Why Join?)
  • Login
  • US Flag 
09:34PM EDT


 

Airport Tracker/Info


-or-


 

Live Flight TrackerFlight Track Log ✈ N75ZM ✈ 07-May-2013 ✈ KILM - KPDK

Flight Track Log - Related Links

Times and Time Zones

All times are in EDT time to prevent confusion due to time zone crossing. See the N75ZM flight status page for this flight to view local times or setup timezone preferences in your user account.

Time Position Orientation Groundspeed Altitude Reporting Facility
EDT Latitude Longitude Course Direction KTS MPH feet Rate Location/Type
09:11PM 34.2500 -78.2012 270° West  Level FlightAware Approximate
09:12PM 34.2500 -78.2516 270° West  Level FlightAware Approximate
09:13PM 34.2483 -78.3019 264° West  Level FlightAware Approximate
09:14PM 34.2438 -78.3520 264° West  Level FlightAware Approximate
09:15PM 34.2392 -78.4020 264° West  Level FlightAware Approximate
09:16PM 34.2347 -78.4521 264° West  Level FlightAware Approximate
09:17PM 34.2324 -78.5024 268° West  Level FlightAware Approximate
09:18PM 34.2311 -78.5527 268° West  Level FlightAware Approximate
09:19PM 34.2298 -78.6031 268° West  Level FlightAware Approximate
09:20PM 34.2285 -78.6534 268° West  Level FlightAware Approximate
09:21PM 34.2271 -78.7038 268° West  Level FlightAware Approximate
09:22PM 34.2257 -78.7541 268° West  Level FlightAware Approximate
09:23PM 34.2243 -78.8045 268° West  Level FlightAware Approximate
09:24PM 34.2229 -78.8548 268° West  Level FlightAware Approximate
09:25PM 34.2214 -78.9051 268° West  Level FlightAware Approximate
09:26PM 34.2200 -78.9555 268° West  Level FlightAware Approximate
09:27PM 34.2185 -79.0058 268° West  Level FlightAware Approximate
09:28PM 34.2170 -79.0561 268° West  Level FlightAware Approximate
09:29PM 34.2148 -79.1064 267° West  Level FlightAware Approximate
09:30PM 34.2124 -79.1567 267° West  Level FlightAware Approximate
09:31PM 34.2100 -79.2070 267° West  Level FlightAware Approximate
09:32PM 34.2076 -79.2572 267° West  Level FlightAware Approximate
09:33PM 34.2052 -79.3075 267° West  Level FlightAware Approximate
09:34PM 34.2027 -79.3578 267° West  Level FlightAware Approximate
09:35PM 34.2002 -79.4081 267° West  Level FlightAware Approximate
09:36PM 34.1977 -79.4583 267° West  Level FlightAware Approximate
09:37PM 34.1952 -79.5086 267° West  Level FlightAware Approximate
09:38PM 34.1926 -79.5588 267° West  Level FlightAware Approximate
09:39PM 34.1901 -79.6091 266° West  Level FlightAware Approximate
09:40PM 34.1875 -79.6593 266° West  Level FlightAware Approximate
09:41PM 34.1849 -79.7096 266° West  Level FlightAware Approximate
09:42PM 34.1822 -79.7598 266° West  Level FlightAware Approximate
09:43PM 34.1796 -79.8101 266° West  Level FlightAware Approximate
09:44PM 34.1769 -79.8603 266° West  Level FlightAware Approximate
09:45PM 34.1742 -79.9105 266° West  Level FlightAware Approximate
09:46PM 34.1715 -79.9608 266° West  Level FlightAware Approximate
09:47PM 34.1688 -80.0110 266° West  Level FlightAware Approximate
09:48PM 34.1660 -80.0612 266° West  Level FlightAware Approximate
09:49PM 34.1629 -80.1114 266° West  Level FlightAware Approximate
09:50PM 34.1599 -80.1616 266° West  Level FlightAware Approximate
09:51PM 34.1567 -80.2118 266° West  Level FlightAware Approximate
09:52PM 34.1536 -80.2620 266° West  Level FlightAware Approximate
09:53PM 34.1505 -80.3122 266° West  Level FlightAware Approximate
09:54PM 34.1473 -80.3624 266° West  Level FlightAware Approximate
09:55PM 34.1441 -80.4125 266° West  Level FlightAware Approximate
09:56PM 34.1409 -80.4627 266° West  Level FlightAware Approximate
09:57PM 34.1377 -80.5129 266° West  Level FlightAware Approximate
09:58PM 34.1345 -80.5630 266° West  Level FlightAware Approximate
09:59PM 34.1312 -80.6132 266° West  Level FlightAware Approximate
10:00PM 34.1279 -80.6634 265° West  Level FlightAware Approximate
10:01PM 34.1246 -80.7135 265° West  Level FlightAware Approximate
10:02PM 34.1213 -80.7636 265° West  Level FlightAware Approximate
10:03PM 34.1180 -80.8138 265° West  Level FlightAware Approximate
10:04PM 34.1148 -80.8640 266° West  Level FlightAware Approximate
10:05PM 34.1118 -80.9141 266° West  Level FlightAware Approximate
10:06PM 34.1087 -80.9643 266° West  Level FlightAware Approximate
10:07PM 34.1056 -81.0144 266° West  Level FlightAware Approximate
10:08PM 34.1025 -81.0646 266° West  Level FlightAware Approximate
10:09PM 34.0994 -81.1148 266° West  Level FlightAware Approximate
10:10PM 34.0962 -81.1649 266° West  Level FlightAware Approximate
10:11PM 34.0930 -81.2150 266° West  Level FlightAware Approximate
10:12PM 34.0899 -81.2652 266° West  Level FlightAware Approximate
10:13PM 34.0867 -81.3153 266° West  Level FlightAware Approximate
10:14PM 34.0834 -81.3655 266° West  Level FlightAware Approximate
10:15PM 34.0802 -81.4156 266° West  Level FlightAware Approximate
10:16PM 34.0769 -81.4657 266° West  Level FlightAware Approximate
10:17PM 34.0736 -81.5158 265° West  Level FlightAware Approximate
10:18PM 34.0703 -81.5660 265° West  Level FlightAware Approximate
10:19PM 34.0670 -81.6161 265° West  Level FlightAware Approximate
10:20PM 34.0636 -81.6662 265° West  Level FlightAware Approximate
10:21PM 34.0602 -81.7163 265° West  Level FlightAware Approximate
10:22PM 34.0569 -81.7664 265° West  Level FlightAware Approximate
10:23PM 34.0534 -81.8165 265° West  Level FlightAware Approximate
10:24PM 34.0500 -81.8666 265° West  Level FlightAware Approximate
10:25PM 34.0467 -81.9167 265° West  Level FlightAware Approximate
10:26PM 34.0433 -81.9668 265° West  Level FlightAware Approximate
10:27PM 34.0400 -82.0169 265° West  Level FlightAware Approximate
10:28PM 34.0366 -82.0670 265° West  Level FlightAware Approximate
10:29PM 34.0249 -82.1155 254° West  Level FlightAware Approximate
10:30PM 33.9844 -82.1267 193° South  Level FlightAware Approximate
10:31PM 33.9823 -82.1768 270° West  Level Estimated
10:32PM 33.9765 -82.2265 262° West  Level FlightAware Approximate
10:33PM 33.9707 -82.2762 262° West  Level FlightAware Approximate
10:34PM 33.9649 -82.3259 262° West  Level FlightAware Approximate
10:35PM 33.9590 -82.3755 262° West  Level FlightAware Approximate
10:36PM 33.9531 -82.4252 262° West  Level FlightAware Approximate
10:37PM 33.9473 -82.4748 262° West  Level FlightAware Approximate
10:38PM 33.9413 -82.5245 262° West  Level FlightAware Approximate
10:39PM 33.9354 -82.5741 262° West  Level FlightAware Approximate
10:40PM 33.9295 -82.6237 262° West  Level FlightAware Approximate
10:41PM 33.9235 -82.6734 262° West  Level FlightAware Approximate
10:42PM 33.9175 -82.7230 262° West  Level FlightAware Approximate
10:42PM 33.9906 -82.8061 265° West 171 197 8,000  Level Atlanta Center
10:43PM 33.9115 -82.7726 262° West  Level FlightAware Approximate
10:43PM 33.9869 -82.8589 265° West 166 191 8,000  Level Atlanta Center
10:44PM 33.9054 -82.8222 262° West  Level FlightAware Approximate
10:44PM 33.9811 -82.9114 262° West 166 191 8,100  Level Atlanta Center
10:45PM 33.9047 -82.8723 266° West  Level Estimated
10:45PM 33.9794 -82.9667 268° West 161 185 8,100  Level Atlanta Center
10:46PM 33.9011 -82.9223 265° West  Level FlightAware Approximate
10:46PM 33.9758 -83.0217 265° West 161 185 8,100  Level Atlanta Center
10:47PM 33.8975 -82.9722 265° West  Level FlightAware Approximate
10:47PM 33.9678 -83.0744 260° West 161 185 8,100  Level Atlanta Center
10:48PM 33.9661 -83.1294 268° West 161 185 8,100  Level Atlanta Center
10:49PM 33.9625 -83.1822 265° West 161 185 8,100  Level Atlanta Center
10:50PM 33.9564 -83.2375 262° West 166 191 8,100 -120 Level Atlanta Center
10:51PM 33.9547 -83.2900 268° West 166 191 7,900 -300 Descending Atlanta Center
10:52PM 33.9489 -83.3503 263° West 166 191 7,500 -480 Descending Atlanta Center
10:53PM 33.9450 -83.4078 265° West 171 197 7,000 -540 Descending Atlanta Center
10:54PM 33.9411 -83.4678 266° West 177 204 6,500 -420 Descending Atlanta Center
10:55PM 33.9372 -83.5206 265° West 182 209 6,200 -180 Descending Atlanta Center
10:56PM 33.9333 -83.5781 265° West 182 209 6,200  Level Atlanta Center
10:57PM 33.9292 -83.6333 265° West 176 203 6,200  Level Atlanta Center
10:58PM 33.9253 -83.6883 265° West 171 197 6,200  Level Atlanta Center
10:59PM 33.9211 -83.7408 265° West 171 197 6,200 -240 Level Atlanta Center
11:00PM 33.9172 -83.7986 265° West 171 197 5,800 -420 Descending Atlanta Center
11:01PM 33.9131 -83.8561 265° West 171 197 5,400 -540 Descending Atlanta Center
11:01PM 33.9167 -83.9000 276° West 180 207 4,900 -480 Descending Atlanta TRACON
11:03PM 33.9000 -84.0000 259° West 171 197 4,200 -420 Descending Atlanta TRACON